This is the latest recevied weather packets stored in our database for station/object KI5NXU. If no packets are shown the sender has not sent any weather packets the latest 10 day(s).
| Time | Temp. | Humidity | Pressure | Rain* | Wind** | Luminosity | Snow |
|---|---|---|---|---|---|---|---|
| 1778091179 | 16.67° C | 66% | 1014.2 hPa | 0 mm | - | 431 W/m² | - |
| 1778090876 | 17.22° C | 65% | 1014.2 hPa | 0 mm | - | 465 W/m² | - |
| 1778090571 | 16.67° C | 64% | 1014.3 hPa | 0 mm | - | 513 W/m² | - |
| 1778090268 | 16.67° C | 68% | 1014.1 hPa | 0 mm | - | 588 W/m² | - |
| 1778089965 | 16.67° C | 66% | 1013.9 hPa | 0 mm | - | 534 W/m² | - |
| 1778089662 | 16.67° C | 65% | 1013.9 hPa | 0 mm | - | 575 W/m² | - |
| 1778089359 | 16.67° C | 64% | 1014.4 hPa | 0 mm | - | 733 W/m² | - |
| 1778089057 | 16.11° C | 67% | 1014.4 hPa | 0 mm | - | 575 W/m² | - |
| 1778088753 | 16.67° C | 64% | 1014.5 hPa | 0 mm | - | 569 W/m² | - |
| 1778088451 | 16.67° C | 65% | 1014.2 hPa | 0 mm | - | 682 W/m² | - |
| 1778088147 | 16.11° C | 67% | 1014.2 hPa | 0 mm | - | 471 W/m² | - |
| 1778087845 | 15.56° C | 67% | 1014.4 hPa | 0 mm | - | 435 W/m² | - |
| 1778087542 | 16.11° C | 66% | 1014.4 hPa | 0 mm | - | 351 W/m² | - |
| 1778087239 | 15.56° C | 66% | 1014.5 hPa | 0 mm | - | 394 W/m² | - |
| 1778086936 | 15° C | 68% | 1014.4 hPa | 0 mm | - | 363 W/m² | - |
| 1778086634 | 15° C | 70% | 1014.1 hPa | 0 mm | - | 386 W/m² | - |
| 1778086331 | 15.56° C | 68% | 1014 hPa | 0 mm | - | 833 W/m² | - |
| 1778086028 | 15.56° C | 68% | 1014 hPa | 0 mm | - | 813 W/m² | - |
| 1778085725 | 15° C | 69% | 1013.9 hPa | 0 mm | - | 747 W/m² | - |
| 1778085421 | 16.11° C | 66% | 1014.1 hPa | 0 mm | - | 724 W/m² | - |
| 1778085116 | 15.56° C | 68% | 1014.4 hPa | 0 mm | - | 607 W/m² | - |
| 1778084813 | 14.44° C | 70% | 1014.3 hPa | 0 mm | - | 745 W/m² | - |
| 1778084510 | 13.89° C | 71% | 1014.8 hPa | 0 mm | - | 385 W/m² | - |
| 1778084207 | 13.89° C | 71% | 1014.6 hPa | 0 mm | - | 471 W/m² | - |
| 1778083904 | 13.33° C | 72% | 1014.6 hPa | 0 mm | - | 439 W/m² | - |
* Rain latest hour (hover to see other rain measurements)
** Current wind speed in m/s (hover to see current wind gust speed)